Time;durP1;ratioP1;P1;durP2;ratioP2;P2;SDS_P1;SDS_P2;PMS_P1;PMS_P2;Temp;Humidity;BMP_temperature;BMP_pressure;BME280_temperature;BME280_humidity;BME280_pressure;Samples;Min_cycle;Max_cycle;Signal;HPM_P1;HPM_P2
2023/06/27 00:00:41;;;;;;;11.43;2.08;;;18.70;93.20;;;;;;5030276;28;20037;-67
2023/06/27 00:03:08;;;;;;;8.35;2.17;;;18.90;93.20;;;;;;5030285;28;20060;-66
2023/06/27 00:05:35;;;;;;;11.57;2.13;;;18.70;93.20;;;;;;5031218;28;20025;-67
2023/06/27 00:08:00;;;;;;;3.10;1.33;;;18.70;93.30;;;;;;5031477;28;20467;-64
2023/06/27 00:10:26;;;;;;;5.28;1.60;;;18.70;93.40;;;;;;5031091;28;20029;-64
2023/06/27 00:12:52;;;;;;;9.75;1.80;;;18.70;93.40;;;;;;5031214;28;20179;-66
2023/06/27 00:15:18;;;;;;;5.60;1.95;;;18.70;93.60;;;;;;5030997;28;20029;-66
2023/06/27 00:17:45;;;;;;;13.80;2.33;;;18.70;93.70;;;;;;5030038;28;20096;-66
2023/06/27 00:20:11;;;;;;;7.57;2.13;;;18.60;94.20;;;;;;5031272;28;20047;-67
2023/06/27 00:22:40;;;;;;;7.47;2.60;;;18.50;94.50;;;;;;5031161;28;20583;-66
2023/06/27 00:25:09;;;;;;;8.50;2.10;;;18.40;94.80;;;;;;5030870;28;20072;-64
2023/06/27 00:27:35;;;;;;;10.20;2.30;;;18.50;95.00;;;;;;5031201;28;20029;-65
2023/06/27 00:30:01;;;;;;;10.48;2.63;;;18.30;95.40;;;;;;5029477;28;20444;-66
2023/06/27 00:32:26;;;;;;;12.65;2.45;;;18.40;95.60;;;;;;5030887;28;20125;-65
2023/06/27 00:34:52;;;;;;;4.97;2.15;;;18.40;95.50;;;;;;5031108;28;20021;-65
2023/06/27 00:37:18;;;;;;;12.90;2.17;;;18.30;95.80;;;;;;5030772;28;20470;-67
2023/06/27 00:39:44;;;;;;;14.40;2.22;;;18.20;95.90;;;;;;5030499;28;20112;-66
2023/06/27 00:42:09;;;;;;;9.63;2.13;;;18.20;96.00;;;;;;5029380;28;20060;-65
2023/06/27 00:44:36;;;;;;;10.35;2.15;;;18.20;95.90;;;;;;5030696;28;20041;-66
2023/06/27 00:47:02;;;;;;;8.30;2.10;;;18.10;96.00;;;;;;5030675;28;20075;-65
2023/06/27 00:49:27;;;;;;;9.07;2.58;;;18.10;96.10;;;;;;5030813;28;20025;-66
2023/06/27 00:51:54;;;;;;;7.32;1.90;;;18.00;96.00;;;;;;5030351;28;20045;-66
2023/06/27 00:54:21;;;;;;;12.18;1.75;;;18.00;96.10;;;;;;5030310;28;20420;-66
2023/06/27 00:56:49;;;;;;;7.45;2.20;;;17.90;96.10;;;;;;5030471;28;20036;-64
2023/06/27 00:59:15;;;;;;;6.30;2.03;;;17.90;96.00;;;;;;5030333;28;20063;-66
2023/06/27 01:01:40;;;;;;;6.32;2.05;;;17.90;96.10;;;;;;5030862;28;20033;-65
2023/06/27 01:04:06;;;;;;;9.30;2.08;;;17.90;95.90;;;;;;5030259;28;20432;-65
2023/06/27 01:07:09;;;;;;;7.95;2.10;;;17.90;96.00;;;;;;5030416;28;20022;-64
2023/06/27 01:09:43;;;;;;;6.07;2.17;;;17.80;95.90;;;;;;5021495;28;20341;-65
2023/06/27 01:12:30;;;;;;;5.10;1.80;;;17.80;95.90;;;;;;5029976;28;20060;-64
2023/06/27 01:14:57;;;;;;;16.77;2.63;;;17.80;96.00;;;;;;5029902;28;20383;-64
2023/06/27 01:17:24;;;;;;;4.47;2.20;;;17.80;95.70;;;;;;5029948;28;20033;-65
2023/06/27 01:19:52;;;;;;;9.00;2.10;;;17.90;95.60;;;;;;5030309;28;20416;-65
2023/06/27 01:22:29;;;;;;;;;;;17.80;95.50;;;;;;5011158;28;20033;-64
2023/06/27 01:24:56;;;;;;;9.32;1.92;;;17.80;95.60;;;;;;5026908;28;20306;-66
2023/06/27 01:27:22;;;;;;;6.93;1.80;;;17.80;95.60;;;;;;5029029;28;20095;-64
2023/06/27 01:29:48;;;;;;;10.15;3.00;;;17.80;95.50;;;;;;5028419;28;20127;-66
2023/06/27 01:32:23;;;;;;;5.20;1.38;;;17.60;95.50;;;;;;5029817;28;20435;-65
2023/06/27 01:34:58;;;;;;;8.63;1.83;;;17.60;95.50;;;;;;5030371;28;20037;-64
2023/06/27 01:37:30;;;;;;;6.68;1.88;;;17.60;95.40;;;;;;5050111;28;20344;-64
2023/06/27 01:40:00;;;;;;;8.18;1.48;;;17.70;95.20;;;;;;5049752;28;20037;-65
2023/06/27 01:42:35;;;;;;;7.35;1.60;;;17.70;95.20;;;;;;5062726;28;20029;-65
2023/06/27 01:45:03;;;;;;;8.77;2.10;;;17.70;95.00;;;;;;5069780;28;20041;-64
2023/06/27 01:47:30;;;;;;;6.38;2.00;;;17.60;94.90;;;;;;5069891;28;20036;-66
2023/06/27 01:49:56;;;;;;;4.60;1.50;;;17.50;95.00;;;;;;5069610;28;20093;-66
2023/06/27 01:52:22;;;;;;;6.50;1.80;;;17.50;95.10;;;;;;5068827;28;20409;-66
2023/06/27 01:54:48;;;;;;;4.53;1.55;;;17.40;95.10;;;;;;5069594;28;20545;-65
2023/06/27 01:57:14;;;;;;;5.00;2.30;;;17.30;95.20;;;;;;5068405;28;20036;-65
2023/06/27 01:59:39;;;;;;;7.15;1.85;;;17.30;95.30;;;;;;5068382;28;20093;-64
2023/06/27 02:02:06;;;;;;;5.20;1.63;;;17.30;95.20;;;;;;5069358;28;20100;-65
2023/06/27 02:04:32;;;;;;;6.03;1.55;;;17.30;95.10;;;;;;5068672;28;20016;-65
2023/06/27 02:06:57;;;;;;;3.78;1.52;;;17.40;95.00;;;;;;5069412;28;20029;-65
2023/06/27 02:09:24;;;;;;;10.48;3.42;;;17.30;95.00;;;;;;5069167;28;20024;-66
2023/06/27 02:11:50;;;;;;;7.88;1.95;;;17.20;94.90;;;;;;5069409;28;20033;-64
2023/06/27 02:14:15;;;;;;;6.68;1.42;;;17.20;95.00;;;;;;5069281;28;20043;-65
2023/06/27 02:16:41;;;;;;;5.35;1.60;;;17.20;95.00;;;;;;5068839;28;20054;-65
2023/06/27 02:19:07;;;;;;;8.73;1.40;;;17.20;95.00;;;;;;5069421;28;20024;-65
2023/06/27 02:21:32;;;;;;;2.10;1.08;;;17.30;94.90;;;;;;5069278;28;20035;-63
2023/06/27 02:23:58;;;;;;;4.97;1.75;;;17.20;94.70;;;;;;5069299;28;20056;-64
2023/06/27 02:26:24;;;;;;;5.97;1.88;;;17.30;94.80;;;;;;5068205;28;20067;-64
2023/06/27 02:28:50;;;;;;;8.02;1.40;;;17.20;94.70;;;;;;5069493;28;20501;-65
2023/06/27 02:31:15;;;;;;;8.30;1.75;;;17.10;94.70;;;;;;5069027;28;20068;-64
2023/06/27 02:33:41;;;;;;;5.75;1.48;;;17.10;94.70;;;;;;5071946;28;20128;-65
2023/06/27 02:36:07;;;;;;;7.97;1.45;;;17.10;94.60;;;;;;5072622;28;20423;-66
2023/06/27 02:38:33;;;;;;;8.65;1.88;;;17.10;94.70;;;;;;5072592;28;20029;-63
2023/06/27 02:40:59;;;;;;;3.30;1.48;;;17.00;94.70;;;;;;5072632;28;20032;-64
2023/06/27 02:43:25;;;;;;;4.00;1.40;;;17.00;94.70;;;;;;5073142;28;20116;-64
2023/06/27 02:45:50;;;;;;;6.40;1.60;;;17.00;94.60;;;;;;5071588;28;20047;-64
2023/06/27 02:48:16;;;;;;;9.07;1.90;;;16.80;94.90;;;;;;5072808;28;20265;-65
2023/06/27 02:50:45;;;;;;;4.85;1.50;;;16.80;95.00;;;;;;5072525;28;20098;-64
2023/06/27 02:53:11;;;;;;;6.97;1.70;;;16.90;94.80;;;;;;5071518;28;20096;-64
2023/06/27 02:55:38;;;;;;;8.65;1.67;;;17.00;94.80;;;;;;5072882;28;20190;-63
2023/06/27 02:58:03;;;;;;;8.65;1.65;;;16.90;94.70;;;;;;5072464;28;20134;-63
2023/06/27 03:00:29;;;;;;;2.15;1.50;;;16.80;94.60;;;;;;5072561;28;20386;-63
2023/06/27 03:02:54;;;;;;;5.30;1.40;;;16.90;94.60;;;;;;5072801;28;20040;-66
2023/06/27 03:05:20;;;;;;;5.57;1.58;;;16.90;94.70;;;;;;5072319;28;20032;-63
2023/06/27 03:07:46;;;;;;;3.47;1.27;;;16.90;94.60;;;;;;5072781;28;20404;-64
2023/06/27 03:10:11;;;;;;;2.85;1.63;;;16.80;94.70;;;;;;5072186;28;20067;-66
2023/06/27 03:12:37;;;;;;;5.22;1.65;;;16.80;94.90;;;;;;5070971;28;20085;-64
2023/06/27 03:15:04;;;;;;;8.02;1.98;;;16.90;94.50;;;;;;5072106;28;20078;-63
2023/06/27 03:17:30;;;;;;;5.63;1.80;;;16.80;94.50;;;;;;5072047;28;20049;-62
2023/06/27 03:19:56;;;;;;;6.38;1.40;;;16.80;94.50;;;;;;5071846;28;20035;-64
2023/06/27 03:22:21;;;;;;;4.50;2.40;;;16.90;94.50;;;;;;5072257;28;20016;-64
2023/06/27 03:24:50;;;;;;;5.72;1.70;;;16.80;94.60;;;;;;5071984;28;20143;-64
2023/06/27 03:27:20;;;;;;;8.05;1.48;;;16.80;94.70;;;;;;5071879;28;20498;-63
2023/06/27 03:29:46;;;;;;;2.63;1.50;;;16.90;94.60;;;;;;5071821;28;20048;-64
2023/06/27 03:32:12;;;;;;;8.52;1.50;;;16.90;94.70;;;;;;5072078;28;20359;-64
2023/06/27 03:34:42;;;;;;;3.20;1.30;;;16.90;94.60;;;;;;5072047;28;20303;-64
2023/06/27 03:37:09;;;;;;;4.20;1.42;;;16.80;94.60;;;;;;5071392;28;20033;-64
2023/06/27 03:39:35;;;;;;;4.15;1.17;;;16.90;94.60;;;;;;5070525;28;20395;-64
2023/06/27 03:42:00;;;;;;;8.65;1.52;;;16.90;94.70;;;;;;5071764;28;20112;-63
2023/06/27 03:44:28;;;;;;;4.57;1.48;;;16.90;94.60;;;;;;5070415;28;20320;-64
2023/06/27 03:46:53;;;;;;;3.70;1.88;;;16.90;94.50;;;;;;5071653;28;20450;-63
2023/06/27 03:49:19;;;;;;;10.02;1.55;;;16.90;94.60;;;;;;5071680;28;20021;-64
2023/06/27 03:51:45;;;;;;;5.25;2.05;;;16.80;94.70;;;;;;5071314;28;20104;-64
2023/06/27 03:54:10;;;;;;;6.00;1.77;;;16.90;94.80;;;;;;5071194;28;20462;-63
2023/06/27 03:56:36;;;;;;;7.85;1.48;;;16.80;94.80;;;;;;5071106;28;20114;-64
2023/06/27 03:59:01;;;;;;;9.63;2.13;;;16.80;94.90;;;;;;5071079;28;20028;-63
2023/06/27 04:01:27;;;;;;;9.38;1.60;;;16.80;94.80;;;;;;5071901;28;20025;-63
2023/06/27 04:03:53;;;;;;;3.97;1.42;;;16.80;94.90;;;;;;5070932;28;20028;-63
2023/06/27 04:06:18;;;;;;;4.93;1.45;;;17.00;94.80;;;;;;5070019;28;20051;-64
2023/06/27 04:08:44;;;;;;;5.25;1.50;;;17.00;94.80;;;;;;5071164;28;20033;-64
2023/06/27 04:11:10;;;;;;;7.05;1.83;;;17.00;94.90;;;;;;5070855;28;20024;-64
2023/06/27 04:13:37;;;;;;;2.78;1.40;;;17.00;94.70;;;;;;5071421;28;20086;-63
2023/06/27 04:16:03;;;;;;;9.23;1.80;;;17.10;94.60;;;;;;5069666;28;20115;-65
2023/06/27 04:18:30;;;;;;;7.82;1.70;;;17.00;94.70;;;;;;5069803;28;20116;-64
2023/06/27 04:20:55;;;;;;;7.90;1.33;;;17.00;94.90;;;;;;5069416;28;20063;-65
2023/06/27 04:23:21;;;;;;;6.97;1.90;;;17.00;94.80;;;;;;5070145;28;20398;-63
2023/06/27 04:25:59;;;;;;;4.05;1.63;;;17.10;94.70;;;;;;5071002;28;20028;-65
2023/06/27 04:28:25;;;;;;;7.75;1.77;;;17.10;94.50;;;;;;5070569;28;20085;-64
2023/06/27 04:30:50;;;;;;;7.63;1.73;;;17.20;94.50;;;;;;5070155;28;20141;-64
2023/06/27 04:33:16;;;;;;;5.53;1.80;;;17.30;94.50;;;;;;5070598;28;20090;-64
2023/06/27 04:35:42;;;;;;;9.40;1.77;;;17.10;94.60;;;;;;5070190;28;20098;-65
2023/06/27 04:38:08;;;;;;;4.30;1.63;;;17.20;94.50;;;;;;5070194;28;20024;-64
2023/06/27 04:40:34;;;;;;;3.80;1.40;;;17.20;94.40;;;;;;5070583;28;20111;-65
2023/06/27 04:42:59;;;;;;;4.43;1.77;;;17.30;94.40;;;;;;5070237;28;20174;-63
2023/06/27 04:45:25;;;;;;;6.10;1.40;;;17.20;94.60;;;;;;5069294;28;20036;-64
2023/06/27 04:47:51;;;;;;;8.60;2.05;;;17.10;94.80;;;;;;5070074;28;20044;-65
2023/06/27 04:50:19;;;;;;;5.93;1.83;;;17.20;94.80;;;;;;5069927;28;20036;-65
2023/06/27 04:52:44;;;;;;;5.53;1.83;;;17.20;94.80;;;;;;5070650;28;20082;-65
2023/06/27 04:55:12;;;;;;;6.78;2.10;;;17.20;95.00;;;;;;5069407;28;20211;-64
2023/06/27 04:57:38;;;;;;;4.90;1.70;;;17.30;95.00;;;;;;5069987;28;20106;-64
2023/06/27 05:00:06;;;;;;;4.47;1.65;;;17.30;94.90;;;;;;5069936;28;20094;-64
2023/06/27 05:02:31;;;;;;;4.90;1.88;;;17.30;95.00;;;;;;5070048;28;20033;-64
2023/06/27 05:04:57;;;;;;;10.57;2.17;;;17.40;95.00;;;;;;5069953;28;20113;-64
2023/06/27 05:07:23;;;;;;;4.20;1.80;;;17.40;95.10;;;;;;5070577;28;20021;-64
2023/06/27 05:09:48;;;;;;;6.43;1.92;;;17.50;95.10;;;;;;5070096;28;20032;-64
2023/06/27 05:12:14;;;;;;;7.22;1.70;;;17.50;95.00;;;;;;5069892;28;20092;-64
2023/06/27 05:14:39;;;;;;;4.93;1.58;;;17.60;95.10;;;;;;5069553;28;20029;-64
2023/06/27 05:17:05;;;;;;;7.68;2.30;;;17.50;95.10;;;;;;5069790;28;20032;-65
2023/06/27 05:19:31;;;;;;;8.80;2.85;;;17.50;95.10;;;;;;5070225;28;20058;-65
2023/06/27 05:21:57;;;;;;;7.85;1.77;;;17.60;95.10;;;;;;5069605;28;20025;-64
2023/06/27 05:24:23;;;;;;;3.95;1.80;;;17.60;95.10;;;;;;5069605;28;20025;-64
2023/06/27 05:26:48;;;;;;;6.40;1.95;;;17.80;95.00;;;;;;5070043;28;20029;-64
2023/06/27 05:29:14;;;;;;;6.65;1.77;;;17.80;95.00;;;;;;5070063;28;20520;-63
2023/06/27 05:31:40;;;;;;;4.50;1.63;;;17.90;94.90;;;;;;5069984;28;20101;-65
2023/06/27 05:34:07;;;;;;;7.30;1.70;;;17.90;94.60;;;;;;5069492;28;20121;-64
2023/06/27 05:36:33;;;;;;;8.98;2.55;;;17.90;94.70;;;;;;5069457;28;20043;-65
2023/06/27 05:38:59;;;;;;;7.38;2.53;;;17.80;94.80;;;;;;5069673;28;20040;-66
2023/06/27 05:41:24;;;;;;;11.48;1.80;;;17.90;94.70;;;;;;5069281;28;20136;-67
2023/06/27 05:43:50;;;;;;;4.68;1.70;;;17.90;94.70;;;;;;5069597;28;20051;-67
2023/06/27 05:46:16;;;;;;;4.18;1.98;;;17.90;94.70;;;;;;5069437;28;20433;-67
2023/06/27 05:48:41;;;;;;;58.45;5.53;;;17.90;94.70;;;;;;5068088;28;20032;-67
2023/06/27 05:51:08;;;;;;;4.72;1.70;;;18.00;94.80;;;;;;5069293;28;20094;-68
2023/06/27 05:53:34;;;;;;;9.45;1.92;;;18.10;94.60;;;;;;5068916;28;20024;-69
2023/06/27 05:55:59;;;;;;;5.60;1.42;;;18.10;94.50;;;;;;5069015;28;20307;-67
2023/06/27 05:58:25;;;;;;;4.90;1.95;;;18.20;94.30;;;;;;5068582;28;20184;-68
2023/06/27 06:00:51;;;;;;;5.90;1.80;;;18.10;94.30;;;;;;5069108;28;20032;-68
2023/06/27 06:03:16;;;;;;;8.18;1.95;;;18.20;94.20;;;;;;5069240;28;20534;-70
2023/06/27 06:05:42;;;;;;;6.05;2.33;;;18.30;94.20;;;;;;5069135;28;20025;-72
2023/06/27 06:08:07;;;;;;;5.85;1.63;;;18.40;94.10;;;;;;5053793;28;20029;-69
2023/06/27 06:10:33;;;;;;;7.97;1.80;;;18.40;93.90;;;;;;5053338;28;20021;-71
2023/06/27 06:12:59;;;;;;;7.88;1.95;;;18.40;93.90;;;;;;5053859;28;20293;-69
2023/06/27 06:15:24;;;;;;;4.60;1.80;;;18.50;93.90;;;;;;5054003;28;20044;-69
2023/06/27 06:17:50;;;;;;;5.30;1.45;;;18.60;93.70;;;;;;5053997;28;20045;-69
2023/06/27 06:20:16;;;;;;;5.80;1.55;;;18.40;93.70;;;;;;5053660;28;20029;-70
2023/06/27 06:22:41;;;;;;;3.35;1.52;;;18.50;93.80;;;;;;5053868;28;20036;-70
2023/06/27 06:25:07;;;;;;;5.55;1.88;;;18.70;93.80;;;;;;5054123;28;20447;-67
2023/06/27 06:27:33;;;;;;;4.78;1.60;;;18.70;93.80;;;;;;5053538;28;20392;-69
2023/06/27 06:29:59;;;;;;;17.10;1.60;;;18.70;93.60;;;;;;5051971;28;20053;-71
2023/06/27 06:32:24;;;;;;;5.22;1.80;;;18.80;93.40;;;;;;5052648;28;20048;-67
2023/06/27 06:34:50;;;;;;;7.53;1.65;;;18.80;93.50;;;;;;5053676;28;20165;-70
2023/06/27 06:37:16;;;;;;;10.15;1.73;;;18.90;93.30;;;;;;5053086;28;20068;-70
2023/06/27 06:39:41;;;;;;;5.03;1.70;;;19.00;93.10;;;;;;5053316;28;20082;-69
2023/06/27 06:42:08;;;;;;;5.85;1.80;;;19.00;93.10;;;;;;5053610;28;20356;-68
2023/06/27 06:44:33;;;;;;;5.05;1.55;;;19.00;93.20;;;;;;5053408;28;20078;-68
2023/06/27 06:46:59;;;;;;;8.48;2.13;;;19.20;93.20;;;;;;5053174;28;20029;-69
2023/06/27 06:49:25;;;;;;;3.47;1.85;;;19.30;93.10;;;;;;5053605;28;20104;-68
2023/06/27 06:51:50;;;;;;;8.30;1.92;;;19.30;93.00;;;;;;5053093;28;20037;-69
2023/06/27 06:54:17;;;;;;;6.05;1.67;;;19.30;93.10;;;;;;5053089;28;20061;-70
2023/06/27 06:56:43;;;;;;;8.88;1.45;;;19.40;93.10;;;;;;5052946;28;20106;-69
2023/06/27 06:59:08;;;;;;;4.97;1.67;;;19.40;92.90;;;;;;5052333;28;20041;-70
2023/06/27 07:01:34;;;;;;;4.05;1.75;;;19.50;92.80;;;;;;5052402;28;20339;-69
2023/06/27 07:04:00;;;;;;;4.47;1.48;;;19.40;92.70;;;;;;5035195;28;20029;-68
2023/06/27 07:06:26;;;;;;;3.83;1.52;;;19.60;92.70;;;;;;5032091;28;20052;-68
2023/06/27 07:08:52;;;;;;;5.97;1.48;;;19.70;92.60;;;;;;5032358;28;20053;-68
2023/06/27 07:11:18;;;;;;;5.75;1.70;;;19.80;92.40;;;;;;5031815;28;20038;-67
2023/06/27 07:13:44;;;;;;;6.35;1.55;;;19.80;92.30;;;;;;5032570;28;20030;-68
2023/06/27 07:16:10;;;;;;;12.27;3.20;;;19.80;92.30;;;;;;5031854;28;20448;-67
2023/06/27 07:18:35;;;;;;;8.55;1.85;;;19.80;92.30;;;;;;5031898;28;20044;-67
2023/06/27 07:21:01;;;;;;;2.10;1.13;;;20.00;92.40;;;;;;5031993;28;20467;-67
2023/06/27 07:23:27;;;;;;;3.45;1.20;;;20.00;92.00;;;;;;5031881;28;20025;-66
2023/06/27 07:25:52;;;;;;;4.80;1.40;;;20.10;92.00;;;;;;5031855;28;20043;-67
2023/06/27 07:28:20;;;;;;;8.55;2.28;;;19.90;91.90;;;;;;5031313;28;20053;-67
2023/06/27 07:30:46;;;;;;;8.65;1.90;;;20.10;92.00;;;;;;5031760;28;20069;-67
2023/06/27 07:33:12;;;;;;;4.20;1.25;;;20.20;92.10;;;;;;5031726;28;20083;-68
2023/06/27 07:35:38;;;;;;;5.32;1.55;;;20.20;92.10;;;;;;5031768;28;20034;-69
2023/06/27 07:38:04;;;;;;;5.35;1.27;;;20.30;91.90;;;;;;5031486;28;20030;-67
2023/06/27 07:40:29;;;;;;;7.88;1.83;;;20.50;91.90;;;;;;5032149;28;20036;-68
2023/06/27 07:42:55;;;;;;;4.82;1.20;;;20.50;91.60;;;;;;5031387;28;20084;-67
2023/06/27 07:45:21;;;;;;;7.18;1.58;;;20.30;91.00;;;;;;5031646;28;20034;-69
2023/06/27 07:47:46;;;;;;;6.95;1.48;;;20.30;91.20;;;;;;5031558;28;20121;-69
2023/06/27 07:50:12;;;;;;;9.60;1.70;;;20.50;91.30;;;;;;5031225;28;20036;-68
2023/06/27 07:52:39;;;;;;;5.35;1.58;;;20.60;90.30;;;;;;5047115;28;20022;-70
2023/06/27 07:55:06;;;;;;;5.22;1.30;;;20.80;90.30;;;;;;5031394;28;20036;-68
2023/06/27 07:57:32;;;;;;;12.88;1.70;;;20.90;89.50;;;;;;5030801;28;20026;-67
2023/06/27 07:59:57;;;;;;;5.50;1.73;;;21.00;89.40;;;;;;5031164;28;20487;-69
2023/06/27 08:02:23;;;;;;;8.25;1.52;;;21.20;89.00;;;;;;5031166;28;20106;-69
2023/06/27 08:04:48;;;;;;;7.20;0.85;;;21.10;87.70;;;;;;5030303;28;20025;-69
2023/06/27 08:07:14;;;;;;;4.68;1.10;;;21.20;86.70;;;;;;5030946;28;20111;-70
2023/06/27 08:09:40;;;;;;;3.17;1.00;;;21.30;86.50;;;;;;5031134;28;20034;-68
2023/06/27 08:12:06;;;;;;;4.07;1.15;;;21.50;87.00;;;;;;5031030;28;20033;-70
2023/06/27 08:14:32;;;;;;;8.95;2.42;;;21.60;85.40;;;;;;5030599;28;20079;-68
2023/06/27 08:16:57;;;;;;;4.97;1.20;;;21.70;85.30;;;;;;5030712;28;20108;-69
2023/06/27 08:19:23;;;;;;;6.68;0.90;;;21.70;84.80;;;;;;5031529;28;20021;-71
2023/06/27 08:21:49;;;;;;;4.47;0.93;;;21.70;84.50;;;;;;5030880;28;20038;-70
2023/06/27 08:24:15;;;;;;;3.28;1.30;;;21.40;84.20;;;;;;5030370;28;20034;-68
2023/06/27 08:26:41;;;;;;;5.57;0.93;;;21.30;84.70;;;;;;5030708;28;20025;-67
2023/06/27 08:29:06;;;;;;;3.13;1.10;;;21.40;85.10;;;;;;5030591;28;20021;-67
2023/06/27 08:31:32;;;;;;;5.22;1.30;;;21.70;84.70;;;;;;5030293;28;20075;-66
2023/06/27 08:33:58;;;;;;;4.55;1.25;;;21.90;83.70;;;;;;5031085;28;20460;-67
2023/06/27 08:36:23;;;;;;;5.65;1.63;;;21.90;82.70;;;;;;5030585;28;20559;-66
2023/06/27 08:38:49;;;;;;;4.53;0.95;;;21.90;81.70;;;;;;5030584;28;20107;-66
2023/06/27 08:41:16;;;;;;;7.45;1.50;;;21.80;81.90;;;;;;5030508;28;20053;-64
2023/06/27 08:43:42;;;;;;;3.87;1.00;;;22.00;80.90;;;;;;5031268;28;20013;-65
2023/06/27 08:46:11;;;;;;;5.30;1.13;;;22.30;81.00;;;;;;5030535;28;20033;-64
2023/06/27 08:48:41;;;;;;;7.25;1.08;;;22.80;78.90;;;;;;5030270;28;20038;-67
2023/06/27 08:51:09;;;;;;;4.53;1.60;;;23.70;76.40;;;;;;5030309;28;20033;-68
2023/06/27 08:53:37;;;;;;;4.05;0.90;;;24.20;75.50;;;;;;5029169;28;20099;-66
2023/06/27 08:56:09;;;;;;;4.03;1.23;;;24.40;74.90;;;;;;5030031;28;20018;-69
2023/06/27 08:59:10;;;;;;;5.65;1.20;;;24.20;72.80;;;;;;5030843;28;20416;-67
2023/06/27 09:01:38;;;;;;;3.97;0.98;;;25.10;73.30;;;;;;5018928;28;20057;-68
2023/06/27 09:04:04;;;;;;;;;;;25.60;72.60;;;;;;5030963;28;20041;-65
2023/06/27 09:06:29;;;;;;;8.07;1.40;;;26.00;70.90;;;;;;5030209;28;20199;-66
2023/06/27 09:08:55;;;;;;;9.05;1.75;;;26.20;69.70;;;;;;5030193;28;20451;-68
2023/06/27 09:11:21;;;;;;;2.58;1.00;;;25.70;70.10;;;;;;5029985;28;20045;-67
2023/06/27 09:13:47;;;;;;;4.82;0.88;;;25.40;69.70;;;;;;5030404;28;20026;-67
2023/06/27 09:16:13;;;;;;;7.88;1.48;;;24.90;70.60;;;;;;5029919;28;20490;-66
2023/06/27 09:18:40;;;;;;;5.88;1.48;;;24.80;71.00;;;;;;5030214;28;20038;-68
2023/06/27 09:21:06;;;;;;;18.85;2.13;;;24.20;72.60;;;;;;5029968;28;20384;-68
2023/06/27 09:23:32;;;;;;;5.70;1.20;;;24.20;73.40;;;;;;5029784;28;20044;-68
2023/06/27 09:26:12;;;;;;;4.20;1.10;;;24.30;73.60;;;;;;5030449;28;20155;-67
2023/06/27 09:28:51;;;;;;;5.88;1.15;;;24.50;73.30;;;;;;5030252;28;20100;-67
2023/06/27 09:31:18;;;;;;;7.85;1.58;;;24.30;72.60;;;;;;5030002;28;20080;-66
2023/06/27 09:33:45;;;;;;;3.83;1.20;;;24.50;72.70;;;;;;5030124;28;20030;-66
2023/06/27 09:36:11;;;;;;;9.60;2.25;;;24.20;72.60;;;;;;5045047;28;20124;-66
2023/06/27 09:38:37;;;;;;;4.85;1.13;;;24.20;73.10;;;;;;5028643;28;20053;-66
2023/06/27 09:41:04;;;;;;;4.40;1.38;;;24.20;72.60;;;;;;5029041;28;20044;-67
2023/06/27 09:43:36;;;;;;;7.28;1.45;;;24.40;73.10;;;;;;5032568;28;20024;-66
2023/06/27 09:46:04;;;;;;;4.55;1.30;;;24.10;71.40;;;;;;5033825;28;20091;-65
2023/06/27 09:48:31;;;;;;;5.00;1.10;;;24.40;71.70;;;;;;5033692;28;20057;-67
2023/06/27 09:51:00;;;;;;;3.53;1.00;;;24.30;70.70;;;;;;5033508;28;20033;-64
2023/06/27 09:53:29;;;;;;;5.63;1.08;;;24.40;71.00;;;;;;5033538;28;20125;-66
2023/06/27 09:55:59;;;;;;;8.73;1.35;;;24.50;70.80;;;;;;5033195;28;20116;-65
2023/06/27 09:58:29;;;;;;;7.05;1.10;;;24.50;71.10;;;;;;5034111;28;20022;-66
2023/06/27 10:01:04;;;;;;;2.90;0.93;;;24.30;69.70;;;;;;5033309;28;20037;-66
2023/06/27 10:03:30;;;;;;;4.43;1.17;;;24.20;69.60;;;;;;5033392;28;20038;-66
2023/06/27 10:05:55;;;;;;;4.88;1.25;;;24.00;69.90;;;;;;5033448;28;20448;-67
2023/06/27 10:08:21;;;;;;;3.25;1.05;;;23.60;70.70;;;;;;5032095;28;20486;-67
2023/06/27 10:10:47;;;;;;;3.65;1.08;;;23.70;69.40;;;;;;5033872;28;20036;-67
2023/06/27 10:13:13;;;;;;;4.68;0.90;;;24.00;68.80;;;;;;5033515;28;20433;-65
2023/06/27 10:15:39;;;;;;;4.78;1.00;;;24.10;68.30;;;;;;5033106;28;20673;-65
2023/06/27 10:18:05;;;;;;;6.38;1.05;;;24.00;68.20;;;;;;5032982;28;20041;-66
2023/06/27 10:20:30;;;;;;;6.32;0.93;;;24.20;68.50;;;;;;5033046;28;20446;-66
2023/06/27 10:22:58;;;;;;;1.85;0.70;;;24.30;68.30;;;;;;5032815;28;20100;-67
2023/06/27 10:25:26;;;;;;;2.92;0.90;;;24.20;67.20;;;;;;5033295;28;20025;-67
2023/06/27 10:28:07;;;;;;;2.72;0.90;;;24.30;67.30;;;;;;5033003;28;20084;-68
2023/06/27 10:30:38;;;;;;;4.07;1.10;;;24.40;67.70;;;;;;5031524;28;20096;-66
2023/06/27 10:33:20;;;;;;;8.32;1.23;;;24.60;67.70;;;;;;5032761;28;20039;-67
2023/06/27 10:35:51;;;;;;;2.55;1.00;;;24.80;67.40;;;;;;5032913;28;20137;-66
2023/06/27 10:38:18;;;;;;;3.10;1.10;;;24.70;66.90;;;;;;5032817;28;20448;-67
2023/06/27 10:41:06;;;;;;;4.38;1.42;;;24.90;67.10;;;;;;5033374;28;20034;-68
2023/06/27 10:43:51;;;;;;;3.85;1.83;;;24.90;66.20;;;;;;5048309;28;20418;-67
2023/06/27 10:46:22;;;;;;;2.90;0.73;;;24.80;66.30;;;;;;5048232;28;20068;-67
2023/06/27 10:48:55;;;;;;;3.30;1.05;;;24.80;66.20;;;;;;5032627;28;20068;-66
2023/06/27 10:51:23;;;;;;;3.33;0.75;;;24.60;66.50;;;;;;5047596;28;20030;-66
2023/06/27 10:54:07;;;;;;;4.60;0.98;;;24.80;66.90;;;;;;5047637;28;20041;-66
2023/06/27 10:56:36;;;;;;;5.43;1.20;;;24.70;67.10;;;;;;5047646;28;20038;-66
2023/06/27 10:59:03;;;;;;;2.00;0.88;;;24.90;66.20;;;;;;5032160;28;20037;-67
2023/06/27 11:01:36;;;;;;;2.85;0.95;;;25.10;65.30;;;;;;5032804;28;20026;-67
2023/06/27 11:04:17;;;;;;;14.15;1.60;;;25.00;65.30;;;;;;5032433;28;20041;-66
2023/06/27 11:06:45;;;;;;;4.30;1.05;;;25.00;63.90;;;;;;5047606;28;20041;-67
2023/06/27 11:09:14;;;;;;;3.22;0.75;;;24.90;63.90;;;;;;5032233;28;20513;-67
2023/06/27 11:11:40;;;;;;;6.70;1.00;;;24.70;64.20;;;;;;5032338;28;20469;-68
2023/06/27 11:14:07;;;;;;;2.47;1.20;;;24.70;64.00;;;;;;5047637;28;20025;-67
2023/06/27 11:16:36;;;;;;;2.08;0.73;;;24.70;62.90;;;;;;5032435;28;20030;-66
2023/06/27 11:19:04;;;;;;;6.95;1.05;;;24.80;62.10;;;;;;5032002;28;20128;-67
2023/06/27 11:21:31;;;;;;;20.88;1.38;;;25.00;62.60;;;;;;5031759;28;20030;-67
2023/06/27 11:24:00;;;;;;;6.32;1.23;;;25.10;62.10;;;;;;5031470;28;20375;-67
2023/06/27 11:26:27;;;;;;;5.47;1.30;;;24.90;63.00;;;;;;5031627;28;20490;-66
2023/06/27 11:28:53;;;;;;;4.50;1.70;;;24.90;63.80;;;;;;5032445;28;20026;-65
2023/06/27 11:31:19;;;;;;;2.47;1.25;;;24.90;64.10;;;;;;5031677;28;20060;-66
2023/06/27 11:33:45;;;;;;;3.17;0.98;;;24.90;63.70;;;;;;5047212;28;20030;-67
2023/06/27 11:36:11;;;;;;;3.75;1.00;;;24.90;64.10;;;;;;5031719;28;20107;-66
2023/06/27 11:38:37;;;;;;;10.85;1.60;;;24.70;65.10;;;;;;5031524;28;20491;-67
2023/06/27 11:41:04;;;;;;;3.45;1.08;;;24.70;64.90;;;;;;5031741;28;20025;-67
2023/06/27 11:43:30;;;;;;;4.22;0.93;;;24.60;65.00;;;;;;5032227;28;20021;-65
2023/06/27 11:45:57;;;;;;;4.47;1.45;;;24.40;64.20;;;;;;5031869;28;20175;-67
2023/06/27 11:48:23;;;;;;;4.35;0.98;;;24.00;63.60;;;;;;5046941;28;20037;-65
2023/06/27 11:50:57;;;;;;;3.42;0.75;;;23.80;64.90;;;;;;5046907;28;20139;-66
2023/06/27 11:53:27;;;;;;;5.05;1.10;;;23.80;64.30;;;;;;5031090;28;20030;-66
2023/06/27 11:55:55;;;;;;;5.00;1.20;;;23.90;64.80;;;;;;5031693;28;20186;-66
2023/06/27 11:58:30;;;;;;;;;;;23.80;65.90;;;;;;5031798;28;20029;-67
2023/06/27 12:00:59;;;;;;;5.63;1.40;;;23.80;66.60;;;;;;5031094;28;19936;-67
2023/06/27 12:03:29;;;;;;;2.20;1.00;;;23.70;66.60;;;;;;5029972;28;20164;-67
2023/06/27 12:05:57;;;;;;;4.47;1.00;;;23.90;66.80;;;;;;5029936;28;20053;-67
2023/06/27 12:08:32;;;;;;;5.50;1.50;;;23.90;66.60;;;;;;5046229;28;20096;-67
2023/06/27 12:11:03;;;;;;;2.83;1.02;;;23.90;66.80;;;;;;5030670;28;20266;-68
2023/06/27 12:13:39;;;;;;;4.57;1.30;;;23.90;66.90;;;;;;5046711;28;20020;-67
2023/06/27 12:16:05;;;;;;;2.20;0.80;;;24.00;66.90;;;;;;5030952;28;20037;-66
2023/06/27 12:18:31;;;;;;;1.63;0.60;;;24.10;65.90;;;;;;5031089;28;20033;-67
2023/06/27 12:20:58;;;;;;;4.38;0.80;;;24.10;64.40;;;;;;5030581;28;20026;-66
2023/06/27 12:23:27;;;;;;;2.05;0.80;;;24.10;62.60;;;;;;5030564;28;20068;-67
2023/06/27 12:25:52;;;;;;;1.92;0.98;;;24.00;62.40;;;;;;5030915;28;20028;-69
2023/06/27 12:28:18;;;;;;;1.40;0.80;;;24.00;61.60;;;;;;5030762;28;20037;-67
2023/06/27 12:30:44;;;;;;;1.48;0.70;;;23.90;61.10;;;;;;5030316;28;20180;-66
2023/06/27 12:33:11;;;;;;;6.85;2.35;;;24.20;61.10;;;;;;5030708;28;20040;-66
2023/06/27 12:35:37;;;;;;;6.80;0.95;;;24.20;61.40;;;;;;5030126;28;20444;-66
2023/06/27 12:38:03;;;;;;;3.90;0.88;;;24.40;60.70;;;;;;5030784;28;20033;-67
2023/06/27 12:40:28;;;;;;;4.97;0.90;;;24.40;60.60;;;;;;5030764;28;20321;-66
2023/06/27 12:42:54;;;;;;;1.90;0.60;;;24.40;61.10;;;;;;5029322;28;20353;-66
2023/06/27 12:45:21;;;;;;;22.65;1.60;;;24.40;61.10;;;;;;5030491;28;20033;-66
2023/06/27 12:47:47;;;;;;;3.03;0.85;;;24.60;62.10;;;;;;5030480;28;20029;-66